createdAt,value
2022-08-19T00:01:59.019Z,17.83
2022-08-19T00:04:29.738Z,17.90
2022-08-19T00:06:56.630Z,16.63
2022-08-19T00:09:24.169Z,15.23
2022-08-19T00:11:51.810Z,14.93
2022-08-19T00:14:19.265Z,16.23
2022-08-19T00:16:47.658Z,15.63
2022-08-19T00:19:14.914Z,16.27
2022-08-19T00:21:41.815Z,15.30
2022-08-19T00:24:10.644Z,16.27
2022-08-19T00:26:39.104Z,17.27
2022-08-19T00:29:07.522Z,22.55
2022-08-19T00:31:34.189Z,18.00
2022-08-19T00:34:00.774Z,21.05
2022-08-19T00:36:27.593Z,21.05
2022-08-19T00:38:54.263Z,23.20
2022-08-19T00:41:24.572Z,24.48
2022-08-19T00:44:01.092Z,23.48
2022-08-19T00:46:28.465Z,25.70
2022-08-19T00:48:57.339Z,23.35
2022-08-19T00:51:26.007Z,24.17
2022-08-19T00:53:52.723Z,24.55
2022-08-19T00:56:19.669Z,25.45
2022-08-19T00:58:46.695Z,23.48
2022-08-19T01:01:14.358Z,23.17
2022-08-19T01:03:43.711Z,27.48
2022-08-19T01:06:24.056Z,25.20
2022-08-19T01:08:50.758Z,26.42
2022-08-19T01:11:17.727Z,25.95
2022-08-19T01:13:50.059Z,25.75
2022-08-19T01:16:18.912Z,27.95
2022-08-19T01:18:46.056Z,26.00
2022-08-19T01:21:39.337Z,27.90
2022-08-19T01:24:06.095Z,26.70
2022-08-19T01:26:38.800Z,26.40
2022-08-19T01:29:09.034Z,25.38
2022-08-19T01:31:37.398Z,26.85
2022-08-19T01:34:04.572Z,28.92
2022-08-19T01:36:37.601Z,27.50
2022-08-19T01:39:09.957Z,28.75
2022-08-19T01:41:36.649Z,27.08
2022-08-19T01:44:18.672Z,26.05
2022-08-19T01:46:48.296Z,25.92
2022-08-19T01:49:15.207Z,29.48
2022-08-19T01:51:41.839Z,29.08
2022-08-19T01:54:11.499Z,32.53
2022-08-19T01:56:38.142Z,34.97
2022-08-19T01:59:11.116Z,40.67
2022-08-19T02:01:37.836Z,43.15
2022-08-19T02:04:04.409Z,42.78
2022-08-19T02:06:31.305Z,47.05
2022-08-19T02:08:58.434Z,50.15
2022-08-19T02:11:32.683Z,49.28
2022-08-19T02:14:01.025Z,52.25
2022-08-19T02:16:27.572Z,53.78
2022-08-19T02:18:54.197Z,56.25
2022-08-19T02:21:23.003Z,55.25
2022-08-19T02:23:50.888Z,56.55
2022-08-19T02:26:18.801Z,51.78
2022-08-19T02:28:45.703Z,57.70
2022-08-19T02:31:15.799Z,60.70
2022-08-19T02:33:42.824Z,55.08
2022-08-19T02:36:12.227Z,57.90
2022-08-19T02:38:39.450Z,54.45
2022-08-19T02:41:17.143Z,54.22
2022-08-19T02:43:59.428Z,53.92
2022-08-19T02:46:32.593Z,62.55
2022-08-19T02:49:02.914Z,55.78
2022-08-19T02:51:34.331Z,56.83
2022-08-19T02:54:01.097Z,57.92
2022-08-19T02:56:28.381Z,58.90
2022-08-19T02:58:58.545Z,59.45
2022-08-19T03:01:33.673Z,59.45
2022-08-19T03:04:04.726Z,53.95
2022-08-19T03:06:32.188Z,58.88
2022-08-19T03:08:58.960Z,62.33
2022-08-19T03:11:31.242Z,60.92
2022-08-19T03:13:59.721Z,63.45
2022-08-19T03:16:28.161Z,58.83
2022-08-19T03:18:57.272Z,64.15
2022-08-19T03:21:26.694Z,65.28
2022-08-19T03:23:58.010Z,65.72
2022-08-19T03:26:25.719Z,62.50
2022-08-19T03:28:58.391Z,69.78
2022-08-19T03:31:43.351Z,65.85
2022-08-19T03:34:18.809Z,76.57
2022-08-19T03:36:46.450Z,66.97
2022-08-19T03:39:13.114Z,67.07
2022-08-19T03:41:45.290Z,68.30
2022-08-19T03:44:19.138Z,71.10
2022-08-19T03:49:14.334Z,72.43
2022-08-19T03:51:43.385Z,71.32
2022-08-19T03:54:12.793Z,66.32
2022-08-19T03:56:40.543Z,62.90
2022-08-19T03:59:10.122Z,66.78
2022-08-19T04:01:36.748Z,62.13
2022-08-19T04:04:04.804Z,62.35
2022-08-19T04:06:39.644Z,60.25
2022-08-19T04:09:09.304Z,62.50
2022-08-19T04:11:43.039Z,59.72
2022-08-19T04:14:15.852Z,58.60
2022-08-19T04:16:44.765Z,67.00
2022-08-19T04:19:12.564Z,55.95
2022-08-19T04:21:39.149Z,63.00
2022-08-19T04:24:06.920Z,59.90
2022-08-19T04:26:37.254Z,58.97
2022-08-19T04:29:12.161Z,62.10
2022-08-19T04:31:39.166Z,65.50
2022-08-19T04:34:08.034Z,66.20
2022-08-19T04:36:37.448Z,69.95
2022-08-19T04:39:07.909Z,59.60
2022-08-19T04:41:53.458Z,68.43
2022-08-19T04:44:20.303Z,65.30
2022-08-19T04:46:52.041Z,66.82
2022-08-19T04:49:23.264Z,70.15
2022-08-19T04:51:52.305Z,68.70
2022-08-19T04:54:37.070Z,68.63
2022-08-19T04:57:07.602Z,72.15
2022-08-19T04:59:34.618Z,71.10
2022-08-19T05:02:01.250Z,65.78
2022-08-19T05:04:32.790Z,66.93
2022-08-19T05:07:00.983Z,62.65
2022-08-19T05:09:52.563Z,68.22
2022-08-19T05:12:16.825Z,70.60
2022-08-19T05:14:44.323Z,66.35
2022-08-19T05:17:27.027Z,68.07
2022-08-19T05:20:14.009Z,65.25
2022-08-19T05:22:43.057Z,65.95
2022-08-19T05:25:13.899Z,62.55
2022-08-19T05:27:42.331Z,59.67
2022-08-19T05:30:10.936Z,66.20
2022-08-19T05:32:37.755Z,61.97
2022-08-19T05:35:05.450Z,57.67
2022-08-19T05:37:32.152Z,61.00
2022-08-19T05:39:58.730Z,56.25
2022-08-19T05:42:28.252Z,54.15
2022-08-19T05:44:55.059Z,55.00
2022-08-19T05:47:22.099Z,54.10
2022-08-19T05:49:51.277Z,56.85
2022-08-19T05:52:19.257Z,48.42
2022-08-19T05:54:50.960Z,45.97
2022-08-19T05:57:18.331Z,48.88
2022-08-19T05:59:47.228Z,42.92
2022-08-19T06:02:15.168Z,50.33
2022-08-19T06:04:43.837Z,47.40
2022-08-19T06:07:12.230Z,39.33
2022-08-19T06:09:39.782Z,43.78
2022-08-19T06:12:06.809Z,41.03
2022-08-19T06:14:37.629Z,41.53
2022-08-19T06:17:08.636Z,39.53
2022-08-19T06:19:41.206Z,36.30
2022-08-19T06:22:08.426Z,42.20
2022-08-19T06:24:36.451Z,35.97
2022-08-19T06:27:04.293Z,37.80
2022-08-19T06:29:31.255Z,35.60
2022-08-19T06:32:00.208Z,37.88
2022-08-19T06:34:29.166Z,37.53
2022-08-19T06:36:57.319Z,39.42
2022-08-19T06:39:26.804Z,32.95
2022-08-19T06:41:58.633Z,32.65
2022-08-19T06:44:29.262Z,35.60
2022-08-19T06:46:58.660Z,31.98
2022-08-19T06:49:31.944Z,34.83
2022-08-19T06:52:00.221Z,33.72
2022-08-19T06:54:30.807Z,34.13
2022-08-19T06:56:59.468Z,31.85
2022-08-19T06:59:28.235Z,34.20
2022-08-19T07:01:57.903Z,33.45
2022-08-19T07:04:27.027Z,37.35
2022-08-19T07:07:19.980Z,33.38
2022-08-19T07:09:57.132Z,35.75
2022-08-19T07:12:33.960Z,40.10
2022-08-19T07:15:04.561Z,30.23
2022-08-19T07:17:34.835Z,30.17
2022-08-19T07:20:06.934Z,40.28
2022-08-19T07:22:36.353Z,41.05
2022-08-19T07:25:04.765Z,38.08
2022-08-19T07:27:33.581Z,36.15
2022-08-19T07:30:01.198Z,41.72
2022-08-19T07:32:28.019Z,41.42
2022-08-19T07:35:02.689Z,44.47
2022-08-19T07:37:33.495Z,43.13
2022-08-19T07:40:02.074Z,43.25
2022-08-19T07:42:30.809Z,48.92
2022-08-19T07:44:59.151Z,52.75
2022-08-19T07:47:49.365Z,50.30
2022-08-19T07:50:12.663Z,50.22
2022-08-19T07:52:40.540Z,42.97
2022-08-19T07:55:40.021Z,42.92
2022-08-19T07:58:00.562Z,51.05
2022-08-19T08:00:29.792Z,49.13
2022-08-19T08:02:56.547Z,52.25
2022-08-19T08:05:44.141Z,43.80
2022-08-19T08:08:31.384Z,44.30
2022-08-19T08:10:59.379Z,41.58
2022-08-19T08:13:28.905Z,41.17
2022-08-19T08:15:56.443Z,42.15
2022-08-19T08:18:28.009Z,42.72
2022-08-19T08:20:56.022Z,40.67
2022-08-19T08:23:30.178Z,31.90
2022-08-19T08:25:59.054Z,39.72
2022-08-19T08:28:29.322Z,38.88
2022-08-19T08:30:58.030Z,40.63
2022-08-19T08:33:34.113Z,37.08
2022-08-19T08:36:08.366Z,35.35
2022-08-19T08:38:39.797Z,37.40
2022-08-19T08:41:36.560Z,40.67
2022-08-19T08:44:05.586Z,34.38
2022-08-19T08:46:46.458Z,37.15
2022-08-19T08:49:39.758Z,38.13
2022-08-19T08:52:19.860Z,36.17
2022-08-19T08:54:55.182Z,43.10
2022-08-19T08:57:40.978Z,43.53
2022-08-19T09:00:16.177Z,41.63
2022-08-19T09:02:43.877Z,42.53
2022-08-19T09:05:16.458Z,37.38
2022-08-19T09:08:05.843Z,41.35
2022-08-19T09:10:45.103Z,39.17
2022-08-19T09:13:39.980Z,36.33
2022-08-19T09:16:10.057Z,36.10
2022-08-19T09:18:43.308Z,41.38
2022-08-19T09:23:38.314Z,36.15
2022-08-19T09:26:16.739Z,40.35
2022-08-19T09:28:45.310Z,36.15
2022-08-19T09:31:19.524Z,37.67
2022-08-19T09:33:46.536Z,38.22
2022-08-19T09:36:24.315Z,35.70
2022-08-19T09:39:01.979Z,29.95
2022-08-19T09:41:29.180Z,31.50
2022-08-19T09:44:07.489Z,31.30
2022-08-19T09:46:37.233Z,30.80
2022-08-19T09:49:07.169Z,32.25
2022-08-19T09:51:35.123Z,31.80
2022-08-19T09:54:05.019Z,31.77
2022-08-19T09:56:34.000Z,34.05
2022-08-19T09:59:02.856Z,35.33
2022-08-19T10:01:31.447Z,32.38
2022-08-19T10:03:59.900Z,31.60
2022-08-19T10:06:33.952Z,30.48
2022-08-19T10:09:12.609Z,29.63
2022-08-19T10:11:54.858Z,27.52
2022-08-19T10:14:24.694Z,24.67
2022-08-19T10:16:52.989Z,26.95
2022-08-19T10:19:25.911Z,26.92
2022-08-19T10:24:21.713Z,25.95
2022-08-19T10:26:57.023Z,23.90
2022-08-19T10:29:31.827Z,27.27
2022-08-19T10:32:03.003Z,26.00
2022-08-19T10:34:31.629Z,29.40
2022-08-19T10:37:00.552Z,27.02
2022-08-19T10:39:32.863Z,31.15
2022-08-19T10:42:08.707Z,30.95
2022-08-19T10:44:36.511Z,28.50
2022-08-19T10:47:04.816Z,27.75
2022-08-19T10:50:12.003Z,24.40
2022-08-19T10:52:49.984Z,20.00
2022-08-19T10:55:41.468Z,24.23
2022-08-19T10:58:16.886Z,20.98
2022-08-19T11:00:44.999Z,23.40
2022-08-19T11:03:12.248Z,16.15
2022-08-19T11:05:40.572Z,24.55
2022-08-19T11:08:23.303Z,22.20
2022-08-19T11:10:52.126Z,15.55
2022-08-19T11:13:18.901Z,18.05
2022-08-19T11:15:46.861Z,18.25
2022-08-19T11:18:13.842Z,18.95
2022-08-19T11:20:40.620Z,24.10
2022-08-19T11:23:07.504Z,22.25
2022-08-19T11:25:35.610Z,18.80
2022-08-19T11:28:02.296Z,21.73
2022-08-19T11:30:29.033Z,19.33
2022-08-19T11:32:55.798Z,23.10
2022-08-19T11:35:24.383Z,22.40
2022-08-19T11:37:51.140Z,19.55
2022-08-19T11:40:18.290Z,16.48
2022-08-19T11:42:58.046Z,15.15
2022-08-19T11:45:26.205Z,29.80
2022-08-19T11:47:53.848Z,21.38
2022-08-19T11:50:21.458Z,22.45
2022-08-19T11:52:48.259Z,18.45
2022-08-19T11:55:15.462Z,27.52
2022-08-19T11:57:44.125Z,23.55
2022-08-19T12:00:13.306Z,20.90
2022-08-19T12:02:40.516Z,18.67
2022-08-19T12:05:11.954Z,18.88
2022-08-19T12:07:39.567Z,16.45
2022-08-19T12:10:06.683Z,16.25
2022-08-19T12:12:35.121Z,13.70
2022-08-19T12:15:01.875Z,13.93
2022-08-19T12:17:28.805Z,17.10
2022-08-19T12:19:55.641Z,20.98
2022-08-19T12:22:22.442Z,17.20
2022-08-19T12:24:51.692Z,14.15
2022-08-19T12:27:32.301Z,20.88
2022-08-19T12:30:07.054Z,17.15
2022-08-19T12:32:33.947Z,11.90
2022-08-19T12:35:00.495Z,16.08
2022-08-19T12:37:27.469Z,11.65
2022-08-19T12:39:54.103Z,15.90
2022-08-19T12:42:23.036Z,12.95
2022-08-19T12:44:49.615Z,14.27
2022-08-19T12:47:16.298Z,10.70
2022-08-19T12:49:54.989Z,9.50
2022-08-19T12:52:28.205Z,10.38
2022-08-19T12:54:56.944Z,8.27
2022-08-19T12:57:32.699Z,11.13
2022-08-19T13:00:16.002Z,9.30
2022-08-19T13:02:45.431Z,7.40
2022-08-19T13:05:15.093Z,11.65
2022-08-19T13:07:42.047Z,10.82
2022-08-19T13:10:10.767Z,6.85
2022-08-19T13:12:37.467Z,10.65
2022-08-19T13:15:10.619Z,7.78
2022-08-19T13:17:39.262Z,8.43
2022-08-19T13:20:08.951Z,7.40
2022-08-19T13:22:36.993Z,8.70
2022-08-19T13:25:06.391Z,9.85
2022-08-19T13:27:33.406Z,10.45
2022-08-19T13:30:19.271Z,8.82
2022-08-19T13:33:04.516Z,10.93
2022-08-19T13:35:31.160Z,8.75
2022-08-19T13:37:57.700Z,8.57
2022-08-19T13:40:27.398Z,10.73
2022-08-19T13:42:55.893Z,9.77
2022-08-19T13:45:25.402Z,6.45
2022-08-19T13:47:59.114Z,9.40
2022-08-19T13:50:32.468Z,11.40
2022-08-19T13:52:59.591Z,8.00
2022-08-19T13:55:27.858Z,7.10
2022-08-19T13:57:56.929Z,6.25
2022-08-19T14:00:27.388Z,5.03
2022-08-19T14:02:56.896Z,4.70
2022-08-19T14:05:24.214Z,5.07
2022-08-19T14:07:51.056Z,4.40
2022-08-19T14:10:18.674Z,3.90
2022-08-19T14:12:46.158Z,6.85
2022-08-19T14:15:14.468Z,7.88
2022-08-19T14:17:47.671Z,3.85
2022-08-19T14:20:18.284Z,6.15
2022-08-19T14:22:47.499Z,4.13
2022-08-19T14:25:21.070Z,3.30
2022-08-19T14:27:48.754Z,4.22
2022-08-19T14:30:19.069Z,5.55
2022-08-19T14:32:45.722Z,5.15
2022-08-19T14:35:13.864Z,3.35
2022-08-19T14:37:45.167Z,3.38
2022-08-19T14:40:17.405Z,4.22
2022-08-19T14:42:45.063Z,5.60
2022-08-19T14:45:12.591Z,6.15
2022-08-19T14:47:40.795Z,5.55
2022-08-19T14:50:10.430Z,2.58
2022-08-19T14:52:37.967Z,5.22
2022-08-19T14:55:07.470Z,2.88
2022-08-19T14:57:34.614Z,2.60
2022-08-19T15:00:01.230Z,2.95
2022-08-19T15:02:34.773Z,5.70
2022-08-19T15:05:02.801Z,2.95
2022-08-19T15:07:30.368Z,5.10
2022-08-19T15:09:57.710Z,3.88
2022-08-19T15:12:24.990Z,2.83
2022-08-19T15:14:55.136Z,3.53
2022-08-19T15:17:25.822Z,3.08
2022-08-19T15:20:11.094Z,2.28
2022-08-19T15:22:38.068Z,2.22
2022-08-19T15:25:07.723Z,1.77
2022-08-19T15:27:35.187Z,1.70
2022-08-19T15:30:01.929Z,2.30
2022-08-19T15:32:31.490Z,2.58
2022-08-19T15:34:58.114Z,4.43
2022-08-19T15:37:25.313Z,2.30
2022-08-19T15:39:52.163Z,2.78
2022-08-19T15:42:29.874Z,2.15
2022-08-19T15:45:00.636Z,1.98
2022-08-19T15:47:34.889Z,2.80
2022-08-19T15:50:10.666Z,13.93
2022-08-19T15:52:49.491Z,18.70
2022-08-19T15:55:33.544Z,15.43
2022-08-19T15:58:28.563Z,8.77
2022-08-19T16:01:21.812Z,12.25
2022-08-19T16:04:14.199Z,5.22
2022-08-19T16:06:53.107Z,2.47
2022-08-19T16:09:27.243Z,2.28
2022-08-19T16:11:57.208Z,3.72
2022-08-19T16:14:28.785Z,3.35
2022-08-19T16:16:56.959Z,2.03
2022-08-19T16:19:23.701Z,3.15
2022-08-19T16:21:52.554Z,6.80
2022-08-19T16:24:23.227Z,3.75
2022-08-19T16:26:49.954Z,2.55
2022-08-19T16:29:30.225Z,1.65
2022-08-19T16:32:01.242Z,2.00
2022-08-19T16:34:29.743Z,3.33
2022-08-19T16:36:56.286Z,2.47
2022-08-19T16:39:23.754Z,3.28
2022-08-19T16:41:51.027Z,5.68
2022-08-19T16:44:19.479Z,2.90
2022-08-19T16:46:47.382Z,4.47
2022-08-19T16:49:54.436Z,2.67
2022-08-19T16:52:12.549Z,2.45
2022-08-19T16:54:43.627Z,3.35
2022-08-19T16:57:11.838Z,4.80
2022-08-19T16:59:42.619Z,3.05
2022-08-19T17:02:15.422Z,4.15
2022-08-19T17:04:41.987Z,3.70
2022-08-19T17:07:10.372Z,2.95
2022-08-19T17:09:38.064Z,3.95
2022-08-19T17:12:05.590Z,4.55
2022-08-19T17:14:32.328Z,3.17
2022-08-19T17:16:58.918Z,3.53
2022-08-19T17:19:25.500Z,4.18
2022-08-19T17:21:52.530Z,7.13
2022-08-19T17:24:19.700Z,3.50
2022-08-19T17:26:46.460Z,4.82
2022-08-19T17:29:13.046Z,3.65
2022-08-19T17:31:39.667Z,5.03
2022-08-19T17:34:06.400Z,3.92
2022-08-19T17:36:36.119Z,5.05
2022-08-19T17:39:04.551Z,9.35
2022-08-19T17:41:33.800Z,4.50
2022-08-19T17:44:01.007Z,4.20
2022-08-19T17:46:30.141Z,4.88
2022-08-19T17:48:57.897Z,5.05
2022-08-19T17:51:42.379Z,5.80
2022-08-19T17:54:16.059Z,5.50
2022-08-19T17:56:43.853Z,4.80
2022-08-19T17:59:13.863Z,6.78
2022-08-19T18:01:53.213Z,5.03
2022-08-19T18:04:22.327Z,7.05
2022-08-19T18:06:52.921Z,6.95
2022-08-19T18:09:26.492Z,5.80
2022-08-19T18:11:57.040Z,6.30
2022-08-19T18:14:33.251Z,7.03
2022-08-19T18:17:06.242Z,6.00
2022-08-19T18:19:41.925Z,5.22
2022-08-19T18:22:28.834Z,6.72
2022-08-19T18:24:57.812Z,5.57
2022-08-19T18:27:29.838Z,7.78
2022-08-19T18:29:59.915Z,9.97
2022-08-19T18:32:32.422Z,8.30
2022-08-19T18:35:01.913Z,6.63
2022-08-19T18:37:28.735Z,7.25
2022-08-19T18:40:14.093Z,6.45
2022-08-19T18:43:03.410Z,5.60
2022-08-19T18:45:49.689Z,4.63
2022-08-19T18:48:35.406Z,5.28
2022-08-19T18:51:02.750Z,6.10
2022-08-19T18:53:33.377Z,7.80
2022-08-19T18:56:00.420Z,5.18
2022-08-19T18:58:34.216Z,4.45
2022-08-19T19:01:11.090Z,6.70
2022-08-19T19:03:45.363Z,6.10
2022-08-19T19:06:15.972Z,5.30
2022-08-19T19:08:42.748Z,6.43
2022-08-19T19:11:09.630Z,9.07
2022-08-19T19:13:39.900Z,6.07
2022-08-19T19:16:12.626Z,12.27
2022-08-19T19:18:39.412Z,8.73
2022-08-19T19:21:07.875Z,6.10
2022-08-19T19:23:34.685Z,7.13
2022-08-19T19:26:01.764Z,9.13
2022-08-19T19:28:30.648Z,7.28
2022-08-19T19:30:58.734Z,6.50
2022-08-19T19:33:28.026Z,8.35
2022-08-19T19:35:54.954Z,6.05
2022-08-19T19:38:21.727Z,6.88
2022-08-19T19:40:48.956Z,10.75
2022-08-19T19:43:17.232Z,7.18
2022-08-19T19:45:44.374Z,10.88
2022-08-19T19:48:13.604Z,7.55
2022-08-19T19:50:40.516Z,9.73
2022-08-19T19:53:07.283Z,7.30
2022-08-19T19:55:34.123Z,7.25
2022-08-19T19:58:01.118Z,7.13
2022-08-19T20:00:28.944Z,9.25
2022-08-19T20:02:56.045Z,7.15
2022-08-19T20:05:23.849Z,8.15
2022-08-19T20:08:11.010Z,9.55
2022-08-19T20:10:38.460Z,10.05
2022-08-19T20:13:06.107Z,7.68
2022-08-19T20:15:32.977Z,7.68
2022-08-19T20:18:00.868Z,11.02
2022-08-19T20:20:27.532Z,8.30
2022-08-19T20:22:54.152Z,7.85
2022-08-19T20:25:24.110Z,7.57
2022-08-19T20:27:51.519Z,10.20
2022-08-19T20:30:20.928Z,8.50
2022-08-19T20:32:49.027Z,9.07
2022-08-19T20:35:18.834Z,7.47
2022-08-19T20:37:45.436Z,9.00
2022-08-19T20:40:20.314Z,7.72
2022-08-19T20:42:48.709Z,8.57
2022-08-19T20:45:21.549Z,7.68
2022-08-19T20:48:02.826Z,11.60
2022-08-19T20:50:31.244Z,7.78
2022-08-19T20:52:58.386Z,11.07
2022-08-19T20:55:27.273Z,7.22
2022-08-19T20:57:54.974Z,7.55
2022-08-19T21:00:21.833Z,7.18
2022-08-19T21:02:48.382Z,10.95
2022-08-19T21:05:15.145Z,8.10
2022-08-19T21:07:41.838Z,7.80
2022-08-19T21:10:08.922Z,7.25
2022-08-19T21:12:35.671Z,8.55
2022-08-19T21:15:02.559Z,8.15
2022-08-19T21:17:29.116Z,9.95
2022-08-19T21:19:55.671Z,7.32
2022-08-19T21:22:22.375Z,7.72
2022-08-19T21:24:48.973Z,9.30
2022-08-19T21:27:15.615Z,9.93
2022-08-19T21:29:42.309Z,9.63
2022-08-19T21:32:11.205Z,9.75
2022-08-19T21:34:42.727Z,8.55
2022-08-19T21:37:24.675Z,7.47
2022-08-19T21:39:53.250Z,9.13
2022-08-19T21:42:20.025Z,8.70
2022-08-19T21:44:46.612Z,15.32
2022-08-19T21:47:13.360Z,11.05
2022-08-19T21:49:40.126Z,9.75
2022-08-19T21:52:08.264Z,9.80
2022-08-19T21:54:37.882Z,5.50
2022-08-19T21:57:10.077Z,6.78
2022-08-19T21:59:41.193Z,7.38
2022-08-19T22:02:22.073Z,9.30
2022-08-19T22:04:51.416Z,8.18
2022-08-19T22:07:19.111Z,10.15
2022-08-19T22:09:47.375Z,9.10
2022-08-19T22:12:26.747Z,7.10
2022-08-19T22:14:54.534Z,8.85
2022-08-19T22:17:23.024Z,6.78
2022-08-19T22:19:50.951Z,8.93
2022-08-19T22:22:27.309Z,10.27
2022-08-19T22:24:59.892Z,9.52
2022-08-19T22:27:26.552Z,8.95
2022-08-19T22:29:53.342Z,8.88
2022-08-19T22:32:28.360Z,10.75
2022-08-19T22:34:58.429Z,10.65
2022-08-19T22:37:26.231Z,11.73
2022-08-19T22:39:52.963Z,9.82
2022-08-19T22:42:21.309Z,10.95
2022-08-19T22:44:48.049Z,10.52
2022-08-19T22:47:14.967Z,15.88
2022-08-19T22:49:41.710Z,11.43
2022-08-19T22:52:20.611Z,9.52
2022-08-19T22:54:50.282Z,12.05
2022-08-19T22:57:19.553Z,10.32
2022-08-19T22:59:50.702Z,10.07
2022-08-19T23:02:19.365Z,10.93
2022-08-19T23:04:46.006Z,10.52
2022-08-19T23:07:12.763Z,10.02
2022-08-19T23:09:39.391Z,13.65
2022-08-19T23:12:06.028Z,11.27
2022-08-19T23:14:32.670Z,10.32
2022-08-19T23:16:59.465Z,9.27
2022-08-19T23:19:26.010Z,12.25
2022-08-19T23:21:52.702Z,11.43
2022-08-19T23:24:19.386Z,10.70
2022-08-19T23:27:04.553Z,10.35
2022-08-19T23:29:49.633Z,12.65
2022-08-19T23:32:18.165Z,11.57
2022-08-19T23:34:44.909Z,11.90
2022-08-19T23:37:11.859Z,12.02
2022-08-19T23:39:38.786Z,13.10
2022-08-19T23:42:13.984Z,14.25
2022-08-19T23:44:52.089Z,12.43
2022-08-19T23:47:19.924Z,11.77
2022-08-19T23:49:47.537Z,12.65
2022-08-19T23:52:14.101Z,12.60
2022-08-19T23:54:43.753Z,14.02
2022-08-19T23:57:13.220Z,13.32
2022-08-19T23:59:41.503Z,13.45
